Time;durP1;ratioP1;P1;durP2;ratioP2;P2;SDS_P1;SDS_P2;PMS_P1;PMS_P2;Temp;Humidity;BMP_temperature;BMP_pressure;BME280_temperature;BME280_humidity;BME280_pressure;Samples;Min_cycle;Max_cycle;Signal;HPM_P1;HPM_P2
2022/05/11 00:01:29;;;;;;;4.25;1.73;;;;;;;16.30;65.12;101267.22;5106934;28;20019;-65
2022/05/11 00:03:57;;;;;;;3.50;1.70;;;;;;;16.30;65.11;101266.34;5104246;28;20252;-66
2022/05/11 00:06:22;;;;;;;5.43;1.73;;;;;;;16.29;64.78;101275.94;5106887;28;20019;-65
2022/05/11 00:08:48;;;;;;;3.83;1.70;;;;;;;16.28;64.97;101271.56;5107028;28;20459;-66
2022/05/11 00:11:14;;;;;;;3.13;1.55;;;;;;;16.29;65.68;101265.47;5106884;28;20024;-65
2022/05/11 00:13:40;;;;;;;3.58;1.60;;;;;;;16.27;65.84;101269.81;5104074;28;20015;-66
2022/05/11 00:16:05;;;;;;;4.80;1.98;;;;;;;16.28;65.89;101261.09;5106783;28;20532;-66
2022/05/11 00:18:30;;;;;;;2.63;2.03;;;;;;;16.31;65.97;101260.28;5106534;28;20162;-66
2022/05/11 00:20:56;;;;;;;3.20;2.03;;;;;;;16.28;65.22;101255.88;5107190;28;20618;-65
2022/05/11 00:23:22;;;;;;;3.78;1.88;;;;;;;16.26;64.70;101256.72;5107097;28;20030;-66
2022/05/11 00:25:48;;;;;;;4.78;1.90;;;;;;;16.23;64.22;101247.06;5106778;28;20058;-66
2022/05/11 00:28:14;;;;;;;4.15;2.03;;;;;;;16.25;64.60;101254.94;5107168;28;20020;-65
2022/05/11 00:30:40;;;;;;;4.32;2.15;;;;;;;16.24;65.04;101242.72;5106527;28;20024;-66
2022/05/11 00:33:06;;;;;;;2.58;1.50;;;;;;;16.24;65.10;101240.13;5104122;28;20034;-66
2022/05/11 00:35:33;;;;;;;7.18;2.08;;;;;;;16.22;65.08;101240.09;5106534;28;20075;-66
2022/05/11 00:37:59;;;;;;;5.38;1.80;;;;;;;16.24;65.16;101238.41;5103880;28;20268;-66
2022/05/11 00:40:25;;;;;;;2.38;1.98;;;;;;;16.24;64.90;101241.00;5106114;28;20027;-66
2022/05/11 00:42:51;;;;;;;4.43;2.00;;;;;;;16.27;65.21;101234.94;5106242;28;20019;-66
2022/05/11 00:45:17;;;;;;;2.72;1.80;;;;;;;16.27;64.73;101227.97;5106828;28;20152;-66
2022/05/11 00:49:33;;;;;;;4.70;1.85;;;;;;;16.27;64.52;101227.97;5106800;28;20019;-66
2022/05/11 00:50:52;;;;;;;4.05;1.83;;;;;;;16.25;64.25;101219.22;5107430;28;20100;-66
2022/05/11 00:53:18;;;;;;;4.43;1.63;;;;;;;16.26;64.29;101223.56;5106161;28;20027;-65
2022/05/11 00:55:49;;;;;;;4.00;1.75;;;;;;;16.26;63.91;101220.09;5106671;28;20058;-66
2022/05/11 00:58:19;;;;;;;1.95;1.40;;;;;;;16.27;63.57;101212.28;5109876;28;20061;-66
2022/05/11 01:00:46;;;;;;;1.67;1.40;;;;;;;16.29;63.81;101209.69;5110455;28;20471;-65
2022/05/11 01:03:19;;;;;;;3.08;1.90;;;;;;;16.29;63.95;101221.03;5110130;28;20020;-66
2022/05/11 01:05:45;;;;;;;5.93;1.55;;;;;;;16.30;63.58;101220.16;5107669;28;20030;-65
2022/05/11 01:08:15;;;;;;;4.28;2.03;;;;;;;16.32;64.13;101218.44;5091648;28;20059;-66
2022/05/11 01:10:42;;;;;;;2.70;1.70;;;;;;;16.31;64.22;101214.09;5089767;28;20020;-66
2022/05/11 01:13:11;;;;;;;3.53;1.70;;;;;;;16.29;64.45;101205.34;5091931;28;20019;-66
2022/05/11 01:15:37;;;;;;;3.50;1.63;;;;;;;16.30;64.13;101207.09;5089471;28;20070;-66
2022/05/11 01:18:05;;;;;;;4.20;1.67;;;;;;;16.28;64.36;101198.34;5092781;28;20365;-66
2022/05/11 01:20:33;;;;;;;2.95;1.42;;;;;;;16.27;64.71;101190.47;5089566;28;20016;-65
2022/05/11 01:23:35;;;;;;;4.47;1.63;;;;;;;16.25;64.26;101185.22;5088747;28;20023;-66
2022/05/11 01:26:02;;;;;;;7.30;1.83;;;;;;;16.23;64.57;101189.56;5107751;28;20517;-66
2022/05/11 01:28:28;;;;;;;2.90;1.55;;;;;;;16.22;64.66;101182.59;5109998;28;20068;-66
2022/05/11 01:31:02;;;;;;;2.53;1.55;;;;;;;16.23;64.75;101183.44;5109731;28;20543;-66
2022/05/11 01:33:27;;;;;;;3.60;1.50;;;;;;;16.20;65.07;101182.56;5106170;28;20059;-66
2022/05/11 01:36:14;;;;;;;3.25;1.50;;;;;;;16.18;64.85;101183.38;5108192;28;20501;-66
2022/05/11 01:38:46;;;;;;;2.25;1.45;;;;;;;16.20;64.40;101186.91;5109428;28;20286;-66
2022/05/11 01:41:18;;;;;;;2.83;1.38;;;;;;;16.21;64.92;101186.03;5106731;28;20432;-66
2022/05/11 01:43:43;;;;;;;2.50;1.48;;;;;;;16.20;65.25;101179.94;5109302;28;20573;-66
2022/05/11 01:46:09;;;;;;;2.67;1.25;;;;;;;16.19;65.36;101188.63;5109777;28;20110;-66
2022/05/11 01:48:34;;;;;;;1.98;1.42;;;;;;;16.17;65.40;101184.25;5109275;28;20022;-64
2022/05/11 01:51:00;;;;;;;3.42;1.50;;;;;;;16.15;65.28;101183.34;5109174;28;20106;-66
2022/05/11 01:53:27;;;;;;;3.95;1.60;;;;;;;16.15;65.32;101178.13;5108935;28;20502;-66
2022/05/11 01:55:53;;;;;;;2.53;1.60;;;;;;;16.16;65.36;101185.09;5109700;28;20043;-66
2022/05/11 01:58:20;;;;;;;2.92;1.67;;;;;;;16.14;65.37;101185.06;5106221;28;20070;-66
2022/05/11 02:00:47;;;;;;;3.65;1.67;;;;;;;16.15;65.38;101183.34;5109181;28;20019;-66
2022/05/11 02:03:13;;;;;;;3.80;1.67;;;;;;;16.15;65.42;101183.34;5109174;28;20016;-66
2022/05/11 02:08:22;;;;;;;4.20;1.77;;;;;;;16.13;67.54;101183.34;5108143;28;20500;-66
2022/05/11 02:10:48;;;;;;;4.63;1.65;;;;;;;16.12;66.78;101176.31;5109830;28;20051;-65
2022/05/11 02:13:14;;;;;;;4.38;2.15;;;;;;;16.13;66.97;101172.88;5109015;28;20108;-66
2022/05/11 02:15:39;;;;;;;2.75;1.42;;;;;;;16.13;66.62;101172.88;5108048;28;20077;-65
2022/05/11 02:18:06;;;;;;;7.40;1.85;;;;;;;16.12;66.07;101175.47;5107325;28;20485;-66
2022/05/11 02:20:32;;;;;;;2.95;2.00;;;;;;;16.12;66.12;101168.50;5105504;28;20188;-66
2022/05/11 02:22:57;;;;;;;2.90;1.80;;;;;;;16.12;66.28;101171.09;5105909;28;20474;-65
2022/05/11 02:25:22;;;;;;;2.88;1.83;;;;;;;16.09;66.13;101168.44;5108098;28;20020;-65
2022/05/11 02:27:50;;;;;;;5.97;2.45;;;;;;;16.04;66.46;101163.16;5108925;28;20019;-65
2022/05/11 02:30:19;;;;;;;3.55;1.85;;;;;;;16.01;66.48;101164.84;5108635;28;20042;-65
2022/05/11 02:32:44;;;;;;;4.50;2.17;;;;;;;16.02;66.31;101164.88;5109320;28;20031;-66
2022/05/11 02:35:12;;;;;;;6.28;2.25;;;;;;;16.00;66.52;101166.59;5107921;28;20496;-66
2022/05/11 02:37:57;;;;;;;4.00;1.88;;;;;;;16.00;66.50;101171.81;5108247;28;20039;-66
2022/05/11 02:40:25;;;;;;;1.83;1.55;;;;;;;16.01;66.77;101168.34;5087961;28;20031;-66
2022/05/11 02:42:51;;;;;;;4.45;1.63;;;;;;;16.01;66.31;101163.09;5088017;28;20045;-66
2022/05/11 02:45:18;;;;;;;3.30;2.13;;;;;;;16.02;66.17;101170.09;5091179;28;20058;-66
2022/05/11 02:47:44;;;;;;;3.33;1.60;;;;;;;16.02;66.78;101164.88;5087894;28;20059;-65
2022/05/11 02:50:18;;;;;;;3.05;1.50;;;;;;;16.01;66.58;101167.47;5087563;28;20024;-66
2022/05/11 02:52:43;;;;;;;3.47;1.60;;;;;;;16.00;66.72;101161.34;5102784;28;20163;-65
2022/05/11 02:55:09;;;;;;;5.68;1.77;;;;;;;16.00;66.48;101168.31;5108418;28;20108;-66
2022/05/11 02:57:34;;;;;;;3.08;1.52;;;;;;;15.98;67.07;101163.03;5107920;28;20048;-65
2022/05/11 03:00:00;;;;;;;3.90;1.50;;;;;;;15.97;66.94;101159.53;5107904;28;20038;-65
2022/05/11 03:02:26;;;;;;;5.57;1.88;;;;;;;15.97;66.64;101162.16;5105260;28;20065;-65
2022/05/11 03:04:52;;;;;;;3.13;1.90;;;;;;;15.99;66.59;101161.31;5107949;28;20534;-66
2022/05/11 03:07:18;;;;;;;3.28;1.73;;;;;;;15.98;66.78;101163.03;5107929;28;20047;-66
2022/05/11 03:09:43;;;;;;;2.97;1.55;;;;;;;15.97;66.75;101161.28;5107353;28;20463;-65
2022/05/11 03:12:09;;;;;;;4.93;1.85;;;;;;;15.98;66.89;101147.34;5107736;28;20035;-65
2022/05/11 03:14:34;;;;;;;4.45;1.77;;;;;;;15.96;66.63;101149.94;5106653;28;20052;-66
2022/05/11 03:17:02;;;;;;;4.07;1.50;;;;;;;15.96;66.28;101147.34;5104994;28;20020;-65
2022/05/11 03:19:27;;;;;;;4.05;1.83;;;;;;;15.94;66.05;101146.44;5107205;28;20028;-66
2022/05/11 03:21:52;;;;;;;3.72;1.80;;;;;;;15.94;66.24;101145.53;5107191;28;20028;-66
2022/05/11 03:24:19;;;;;;;2.72;1.52;;;;;;;15.93;66.10;101133.34;5092872;28;20035;-66
2022/05/11 03:26:44;;;;;;;4.80;1.70;;;;;;;15.92;65.79;101131.59;5089471;28;20035;-65
2022/05/11 03:29:10;;;;;;;3.40;1.30;;;;;;;15.94;65.84;101135.09;5087455;28;20024;-65
2022/05/11 03:31:37;;;;;;;2.15;1.45;;;;;;;15.93;66.40;101128.13;5087429;28;20078;-65
2022/05/11 03:36:47;;;;;;;3.03;1.30;;;;;;;15.88;66.76;101128.06;5087253;28;20035;-66
2022/05/11 03:39:15;;;;;;;4.15;1.40;;;;;;;15.85;66.19;101121.03;5086590;28;20051;-66
2022/05/11 03:41:41;;;;;;;3.60;1.35;;;;;;;15.84;66.65;101118.41;5087102;28;20493;-65
2022/05/11 03:44:06;;;;;;;4.53;1.60;;;;;;;15.84;66.46;101121.03;5089715;28;20020;-66
2022/05/11 03:46:31;;;;;;;5.55;1.63;;;;;;;15.85;66.87;101121.03;5086805;28;20018;-66
2022/05/11 03:48:57;;;;;;;2.95;1.42;;;;;;;15.79;66.55;101120.97;5088748;28;20102;-66
2022/05/11 03:51:23;;;;;;;3.63;1.52;;;;;;;15.80;66.37;101112.25;5085033;28;20410;-65
2022/05/11 03:53:49;;;;;;;2.70;1.60;;;;;;;15.77;66.79;101122.69;5085564;28;20031;-65
2022/05/11 03:56:15;;;;;;;5.93;1.42;;;;;;;15.74;66.96;101112.16;5084911;28;20028;-65
2022/05/11 03:58:40;;;;;;;4.00;1.50;;;;;;;15.74;66.96;101101.72;5085450;28;20031;-65
2022/05/11 04:01:05;;;;;;;3.85;1.25;;;;;;;15.74;67.04;101109.53;5088465;28;20062;-66
2022/05/11 04:03:30;;;;;;;3.58;1.50;;;;;;;15.73;67.60;101116.53;5087772;28;20213;-66
2022/05/11 04:05:56;;;;;;;1.92;1.25;;;;;;;15.74;67.18;101114.78;5086496;28;20480;-65
2022/05/11 04:08:21;;;;;;;5.05;1.25;;;;;;;15.71;67.57;101117.34;5086982;28;20066;-66
2022/05/11 04:10:46;;;;;;;4.35;1.40;;;;;;;15.70;67.46;101113.00;5086524;28;20059;-65
2022/05/11 04:13:12;;;;;;;3.65;1.48;;;;;;;15.70;68.00;101115.59;5087119;28;20433;-65
2022/05/11 04:15:38;;;;;;;3.00;1.33;;;;;;;15.70;67.90;101115.59;5087292;28;20016;-66
2022/05/11 04:18:03;;;;;;;3.17;1.48;;;;;;;15.68;68.73;101112.09;5087004;28;20054;-66
2022/05/11 04:20:28;;;;;;;2.90;1.70;;;;;;;15.65;68.03;101112.03;5087097;28;20460;-65
2022/05/11 04:22:55;;;;;;;3.63;1.35;;;;;;;15.64;68.27;101112.88;5086325;28;20066;-65
2022/05/11 04:25:21;;;;;;;5.55;1.42;;;;;;;15.63;68.36;101114.63;5089683;28;20024;-65
2022/05/11 04:27:48;;;;;;;1.92;1.60;;;;;;;15.60;69.14;101106.72;5087405;28;20122;-66
2022/05/11 04:30:15;;;;;;;3.80;1.67;;;;;;;15.54;69.32;101106.66;5087334;28;20431;-65
2022/05/11 04:32:40;;;;;;;2.65;1.55;;;;;;;15.48;69.27;101104.81;5089712;28;20422;-65
2022/05/11 04:35:07;;;;;;;3.38;1.73;;;;;;;15.43;69.97;101111.69;5089848;28;20040;-65
2022/05/11 04:37:32;;;;;;;5.25;1.88;;;;;;;15.40;70.17;101111.66;5089863;28;20018;-65
2022/05/11 04:39:58;;;;;;;5.82;1.40;;;;;;;15.36;70.39;101111.59;5090605;28;20020;-66
2022/05/11 04:42:23;;;;;;;7.30;2.08;;;;;;;15.36;70.86;101108.13;5090461;28;20028;-65
2022/05/11 04:44:49;;;;;;;8.35;1.70;;;;;;;15.36;71.01;101106.38;5092958;28;20057;-65
2022/05/11 04:47:17;;;;;;;6.63;1.98;;;;;;;15.38;71.03;101110.75;5090214;28;20450;-66
2022/05/11 04:49:43;;;;;;;6.57;1.70;;;;;;;15.32;71.08;101104.56;5108059;28;20463;-66
2022/05/11 04:52:11;;;;;;;6.22;1.50;;;;;;;15.32;71.49;101099.34;5092079;28;20028;-65
2022/05/11 04:54:38;;;;;;;7.25;2.17;;;;;;;15.34;71.57;101113.28;5089914;28;20027;-66
2022/05/11 04:57:05;;;;;;;6.10;1.73;;;;;;;15.34;71.75;101102.00;5095771;28;20099;-64
2022/05/11 04:59:32;;;;;;;7.97;1.98;;;;;;;15.29;71.50;101099.28;5090075;28;20413;-65
2022/05/11 05:01:59;;;;;;;2.55;1.90;;;;;;;15.33;71.38;101108.94;5092761;28;20016;-65
2022/05/11 05:04:25;;;;;;;7.13;2.10;;;;;;;15.39;71.65;101109.88;5090377;28;20031;-65
2022/05/11 05:06:50;;;;;;;5.60;1.70;;;;;;;15.44;71.46;101110.84;5089483;28;20014;-66
2022/05/11 05:09:16;;;;;;;3.70;1.77;;;;;;;15.51;71.15;101114.44;5088235;28;20027;-66
2022/05/11 05:11:41;;;;;;;2.53;1.65;;;;;;;15.57;70.87;101110.19;5095992;28;20020;-66
2022/05/11 05:14:06;;;;;;;2.15;1.65;;;;;;;15.58;71.32;101105.81;5089248;28;20016;-65
2022/05/11 05:16:33;;;;;;;4.13;1.70;;;;;;;15.58;71.24;101109.31;5092916;28;20471;-65
2022/05/11 05:18:58;;;;;;;3.15;1.60;;;;;;;15.59;71.61;101113.72;5092772;28;20032;-66
2022/05/11 05:21:23;;;;;;;2.38;1.45;;;;;;;15.64;71.60;101110.28;5089967;28;20450;-66
2022/05/11 05:23:49;;;;;;;6.03;2.33;;;;;;;15.61;71.60;101117.19;5090057;28;20081;-65
2022/05/11 05:26:15;;;;;;;4.05;1.30;;;;;;;15.67;71.31;101120.78;5089998;28;20050;-65
2022/05/11 05:31:29;;;;;;;4.18;1.95;;;;;;;15.79;71.03;101131.41;5089854;28;20792;-65
2022/05/11 05:33:59;;;;;;;3.58;1.75;;;;;;;15.82;70.71;101126.22;5089759;28;20173;-65
2022/05/11 05:36:29;;;;;;;1.92;1.60;;;;;;;15.87;70.48;101128.00;5089802;28;20043;-65
2022/05/11 05:38:55;;;;;;;3.30;2.10;;;;;;;15.92;70.78;101126.38;5090168;28;20036;-65
2022/05/11 05:41:21;;;;;;;4.65;1.70;;;;;;;15.99;70.08;101120.38;5090128;28;20042;-65
2022/05/11 05:43:46;;;;;;;3.90;1.75;;;;;;;16.03;69.80;101124.81;5088010;28;20024;-65
2022/05/11 05:46:15;;;;;;;2.35;1.70;;;;;;;16.07;70.00;101121.38;5089834;28;20039;-65
2022/05/11 05:48:40;;;;;;;2.45;1.80;;;;;;;16.19;70.08;101125.03;5089686;28;20139;-65
2022/05/11 05:51:08;;;;;;;1.90;1.50;;;;;;;16.26;68.55;101128.59;5089291;28;20502;-65
2022/05/11 05:53:34;;;;;;;3.80;1.83;;;;;;;16.39;67.82;101125.25;5088713;28;20070;-65
2022/05/11 05:56:00;;;;;;;2.92;1.65;;;;;;;16.53;66.94;101124.56;5091105;28;20036;-65
2022/05/11 05:58:25;;;;;;;3.63;1.95;;;;;;;16.62;66.27;101129.88;5089519;28;20039;-65
2022/05/11 06:00:51;;;;;;;6.15;2.00;;;;;;;16.76;67.03;101122.22;5088683;28;20088;-65
2022/05/11 06:03:21;;;;;;;3.10;2.10;;;;;;;16.91;66.02;101129.34;5087928;28;20023;-65
2022/05/11 06:05:46;;;;;;;4.60;2.10;;;;;;;17.01;65.24;101132.94;5088442;28;20502;-65
2022/05/11 06:08:15;;;;;;;2.40;1.65;;;;;;;17.12;65.04;101135.69;5088435;28;20153;-65
2022/05/11 06:10:40;;;;;;;4.25;1.90;;;;;;;17.21;63.97;101137.50;5088154;28;20039;-65
2022/05/11 06:13:07;;;;;;;7.00;2.47;;;;;;;17.23;63.29;101133.19;5087422;28;20028;-65
2022/05/11 06:15:32;;;;;;;4.45;1.80;;;;;;;17.35;63.42;101139.38;5087360;28;20104;-65
2022/05/11 06:17:57;;;;;;;4.65;1.80;;;;;;;17.44;62.84;101128.97;5087055;28;20032;-65
2022/05/11 06:20:26;;;;;;;4.90;1.95;;;;;;;17.52;62.72;101129.91;5087511;28;20020;-65
2022/05/11 06:22:53;;;;;;;6.45;1.85;;;;;;;17.61;61.84;101128.22;5087415;28;20024;-65
2022/05/11 06:25:20;;;;;;;3.58;1.20;;;;;;;17.67;61.17;101128.25;5087270;28;20023;-65
2022/05/11 06:27:45;;;;;;;5.05;1.55;;;;;;;17.53;61.12;101125.53;5088202;28;20539;-65
2022/05/11 06:30:11;;;;;;;2.83;1.80;;;;;;;17.74;60.90;101124.81;5088654;28;20035;-65
2022/05/11 06:32:36;;;;;;;3.03;1.40;;;;;;;17.92;60.29;101125.78;5088505;28;20631;-65
2022/05/11 06:35:02;;;;;;;3.47;1.20;;;;;;;17.97;59.05;101115.34;5088734;28;20050;-65
2022/05/11 06:37:27;;;;;;;3.75;1.52;;;;;;;18.12;58.37;101120.66;5088951;28;20020;-65
2022/05/11 06:39:52;;;;;;;4.70;1.20;;;;;;;18.28;58.67;101112.00;5088850;28;20028;-64
2022/05/11 06:42:20;;;;;;;3.20;1.23;;;;;;;18.40;57.33;101109.47;5088718;28;20060;-64
2022/05/11 06:44:45;;;;;;;2.65;1.10;;;;;;;18.58;56.61;101118.25;5088893;28;20382;-65
2022/05/11 06:47:11;;;;;;;3.78;1.10;;;;;;;18.77;56.69;101103.44;5088687;28;20020;-65
2022/05/11 06:49:36;;;;;;;3.20;1.45;;;;;;;18.77;55.95;101107.78;5088105;28;20145;-65
2022/05/11 06:52:03;;;;;;;4.10;1.30;;;;;;;18.90;55.47;101104.34;5088875;28;20027;-65
2022/05/11 06:59:57;;;;;;;3.65;1.52;;;;;;;18.99;53.94;101110.47;5088120;28;20043;-65
2022/05/11 07:02:24;;;;;;;3.75;1.40;;;;;;;19.25;55.19;101104.41;5088199;28;20035;-65
2022/05/11 07:04:50;;;;;;;3.92;1.55;;;;;;;19.43;54.20;101109.63;5087978;28;20028;-65
2022/05/11 07:07:18;;;;;;;5.97;1.38;;;;;;;19.56;54.15;101114.88;5088063;28;20407;-65
2022/05/11 07:09:44;;;;;;;4.03;1.60;;;;;;;19.75;52.95;101114.84;5088383;28;20024;-65
2022/05/11 07:12:20;;;;;;;3.33;1.50;;;;;;;19.77;53.09;101118.34;5088276;28;20027;-65
2022/05/11 07:14:51;;;;;;;5.03;1.58;;;;;;;19.90;53.05;101113.91;5087982;28;20028;-65
2022/05/11 07:17:24;;;;;;;4.75;2.05;;;;;;;20.03;53.42;101117.41;5088204;28;20028;-65
2022/05/11 07:19:49;;;;;;;5.57;2.30;;;;;;;20.09;52.68;101120.06;5087788;28;20266;-65
2022/05/11 07:22:15;;;;;;;3.78;1.58;;;;;;;20.26;52.87;101116.47;5087521;28;20031;-65
2022/05/11 07:24:42;;;;;;;5.13;1.88;;;;;;;20.03;52.58;101109.50;5087628;28;20419;-65
2022/05/11 07:27:08;;;;;;;5.75;1.83;;;;;;;19.96;53.09;101110.41;5087854;28;20034;-65
2022/05/11 07:29:33;;;;;;;3.83;1.63;;;;;;;20.11;52.67;101107.75;5087967;28;20027;-65
2022/05/11 07:31:59;;;;;;;5.40;1.83;;;;;;;20.15;52.18;101104.22;5087187;28;20032;-65
2022/05/11 07:34:24;;;;;;;3.35;1.80;;;;;;;20.46;52.52;101104.97;5087715;28;20109;-65
2022/05/11 07:36:54;;;;;;;6.60;1.95;;;;;;;20.62;51.58;101108.38;5087615;28;20028;-65
2022/05/11 07:39:20;;;;;;;4.32;2.22;;;;;;;20.58;51.34;101109.31;5087620;28;20093;-65
2022/05/11 07:41:45;;;;;;;4.57;1.80;;;;;;;20.79;50.65;101108.31;5087708;28;20024;-65
2022/05/11 07:44:10;;;;;;;3.00;1.75;;;;;;;21.02;50.48;101111.69;5087663;28;20375;-65
2022/05/11 07:46:36;;;;;;;4.78;1.90;;;;;;;20.83;49.20;101107.38;5086419;28;20082;-65
2022/05/11 07:49:05;;;;;;;3.17;1.65;;;;;;;20.96;49.06;101102.06;5087655;28;20038;-65
2022/05/11 07:51:32;;;;;;;4.18;1.73;;;;;;;20.99;48.85;101107.31;5086938;28;20456;-65
2022/05/11 07:53:57;;;;;;;5.95;1.70;;;;;;;21.11;48.11;101107.22;5087505;28;20024;-65
2022/05/11 08:01:50;;;;;;;4.30;1.58;;;;;;;21.24;47.70;101113.25;5086857;28;20035;-65
2022/05/11 08:04:15;;;;;;;3.88;1.48;;;;;;;21.51;47.03;101126.22;5087585;28;20023;-65
2022/05/11 08:06:41;;;;;;;7.22;1.88;;;;;;;21.43;46.68;101122.75;5088333;28;20341;-65
2022/05/11 08:09:07;;;;;;;5.80;2.00;;;;;;;21.71;46.51;101111.97;5091336;28;20463;-65
2022/05/11 08:11:32;;;;;;;6.05;1.80;;;;;;;22.04;47.14;101117.78;5091816;28;20424;-65
2022/05/11 08:13:58;;;;;;;5.88;1.80;;;;;;;22.32;45.99;101127.13;5091654;28;20031;-65
2022/05/11 08:16:23;;;;;;;5.75;1.80;;;;;;;22.40;44.73;101121.72;5091489;28;20739;-65
2022/05/11 08:18:48;;;;;;;9.60;1.77;;;;;;;22.10;44.44;101129.16;5091796;28;20055;-65
2022/05/11 08:21:14;;;;;;;4.35;1.67;;;;;;;21.87;45.38;101117.09;5091573;28;20081;-65
2022/05/11 08:23:40;;;;;;;4.85;1.60;;;;;;;21.78;45.33;101111.00;5091718;28;20383;-65
2022/05/11 08:26:05;;;;;;;5.20;1.80;;;;;;;21.93;45.63;101112.63;5090889;28;20391;-65
2022/05/11 08:28:30;;;;;;;8.35;1.75;;;;;;;21.68;46.08;101111.97;5091452;28;20043;-65
2022/05/11 08:33:41;;;;;;;5.32;1.83;;;;;;;22.16;45.66;101114.09;5090869;28;20053;-65
2022/05/11 08:36:08;;;;;;;7.45;2.45;;;;;;;22.31;44.64;101105.13;5091320;28;20028;-65
2022/05/11 08:38:39;;;;;;;5.70;2.30;;;;;;;22.41;44.02;101102.38;5091258;28;20023;-65
2022/05/11 08:41:23;;;;;;;4.82;1.88;;;;;;;22.36;44.26;101098.94;5091311;28;20388;-65
2022/05/11 08:43:49;;;;;;;6.50;1.80;;;;;;;22.40;44.70;101103.25;5090841;28;20036;-65
2022/05/11 08:46:47;;;;;;;5.22;2.42;;;;;;;22.56;43.83;101117.13;5091411;28;20081;-66
2022/05/11 08:49:21;;;;;;;5.55;1.73;;;;;;;22.73;44.93;101114.28;5090856;28;20028;-65
2022/05/11 08:52:04;;;;;;;5.78;1.85;;;;;;;22.66;43.50;101096.78;5090121;28;20024;-65
2022/05/11 08:54:32;;;;;;;10.52;2.35;;;;;;;22.82;44.08;101097.41;5090402;28;20024;-65
2022/05/11 08:57:00;;;;;;;7.68;2.42;;;;;;;22.91;43.38;101101.69;5090819;28;20035;-66
2022/05/11 08:59:31;;;;;;;7.05;2.00;;;;;;;22.89;44.08;101103.47;5090222;28;20173;-65
2022/05/11 09:02:03;;;;;;;6.82;2.10;;;;;;;22.84;44.43;101100.03;5090810;28;20623;-65
2022/05/11 09:04:50;;;;;;;7.65;2.20;;;;;;;22.86;44.01;101098.25;5090444;28;20115;-65
2022/05/11 09:07:16;;;;;;;6.85;2.05;;;;;;;22.97;43.92;101093.66;5090399;28;20067;-65
2022/05/11 09:09:42;;;;;;;5.78;2.17;;;;;;;23.03;43.45;101093.56;5090693;28;20031;-65
2022/05/11 09:12:10;;;;;;;8.93;2.72;;;;;;;22.83;43.23;101098.31;5090259;28;20031;-65
2022/05/11 09:14:49;;;;;;;3.42;2.20;;;;;;;22.81;43.24;101089.53;5090242;28;20508;-65
2022/05/11 09:17:27;;;;;;;8.43;2.03;;;;;;;23.02;43.20;101083.03;5090534;28;20439;-65
2022/05/11 09:20:06;;;;;;;5.97;2.20;;;;;;;23.09;42.08;101089.94;5090586;28;20107;-65
2022/05/11 09:22:34;;;;;;;8.40;2.10;;;;;;;23.10;42.99;101074.94;5089914;28;20376;-65
2022/05/11 09:25:04;;;;;;;6.05;2.30;;;;;;;23.10;43.41;101080.22;5089948;28;20027;-65
2022/05/11 09:27:33;;;;;;;5.03;2.60;;;;;;;22.97;43.33;101080.44;5090250;28;20142;-66
2022/05/11 09:30:19;;;;;;;7.75;2.47;;;;;;;22.96;43.12;101081.34;5090333;28;20043;-66
2022/05/11 09:32:44;;;;;;;6.18;2.45;;;;;;;22.96;43.15;101084.00;5089912;28;20028;-65
2022/05/11 09:35:37;;;;;;;4.72;2.20;;;;;;;22.49;44.18;101084.66;5089237;28;20056;-65
2022/05/11 09:38:10;;;;;;;4.75;2.20;;;;;;;22.96;43.71;101077.81;5089565;28;20066;-65
2022/05/11 09:41:12;;;;;;;5.72;2.38;;;;;;;23.24;44.36;101085.31;5089789;28;20399;-66
2022/05/11 09:43:43;;;;;;;4.15;1.90;;;;;;;23.46;42.54;101083.16;5066952;28;20473;-65
2022/05/11 09:46:27;;;;;;;4.80;2.65;;;;;;;23.36;42.93;101082.44;5089501;28;20031;-65
2022/05/11 09:49:24;;;;;;;5.82;2.13;;;;;;;23.24;42.70;101078.22;5089980;28;20035;-65
2022/05/11 09:51:50;;;;;;;6.00;1.95;;;;;;;23.37;43.58;101067.44;5089120;28;20024;-66
2022/05/11 09:54:18;;;;;;;4.90;2.20;;;;;;;23.64;43.22;101070.50;5089498;28;20059;-66
2022/05/11 09:56:49;;;;;;;3.70;1.88;;;;;;;23.56;42.89;101068.03;5089236;28;20392;-66
2022/05/11 09:59:27;;;;;;;10.45;2.28;;;;;;;23.53;42.95;101067.22;5089389;28;20028;-66
2022/05/11 10:02:02;;;;;;;4.20;1.83;;;;;;;23.59;43.25;101073.25;5089015;28;20038;-65
2022/05/11 10:04:37;;;;;;;6.10;1.85;;;;;;;23.60;43.25;101071.47;5089309;28;20015;-66
2022/05/11 10:07:05;;;;;;;5.90;2.60;;;;;;;23.63;43.51;101068.78;5089049;28;20024;-66
2022/05/11 10:09:40;;;;;;;6.47;2.25;;;;;;;23.55;43.51;101070.69;5089079;28;20028;-66
2022/05/11 10:12:10;;;;;;;5.03;1.80;;;;;;;23.27;43.42;101072.91;5089258;28;20031;-66
2022/05/11 10:23:23;;;;;;;4.50;1.98;;;;;;;23.67;42.88;101067.81;5089501;28;20391;-66
2022/05/11 10:26:05;;;;;;;7.07;2.05;;;;;;;23.53;42.88;101062.75;5088893;28;20036;-66
2022/05/11 10:28:45;;;;;;;17.13;2.80;;;;;;;23.09;43.63;101058.25;5088833;28;20050;-65
2022/05/11 10:31:22;;;;;;;5.22;1.90;;;;;;;23.25;45.05;101056.22;5088440;28;20032;-66
2022/05/11 10:34:12;;;;;;;8.15;2.50;;;;;;;23.39;43.68;101050.66;5087097;28;20067;-66
2022/05/11 10:36:53;;;;;;;5.53;2.10;;;;;;;23.50;44.43;101047.84;5088157;28;20031;-66
2022/05/11 10:39:55;;;;;;;7.65;2.63;;;;;;;23.15;43.63;101046.69;5088814;28;20024;-66
2022/05/11 10:42:34;;;;;;;4.00;2.03;;;;;;;23.21;43.87;101041.28;5088368;28;20079;-66
2022/05/11 10:45:23;;;;;;;3.28;1.70;;;;;;;23.41;45.40;101045.34;5088482;28;20034;-66
2022/05/11 10:48:14;;;;;;;7.10;2.17;;;;;;;23.84;42.66;101034.84;5088720;28;20020;-65
2022/05/11 10:51:11;;;;;;;6.85;2.13;;;;;;;24.08;42.53;101037.88;5088489;28;20351;-66
2022/05/11 10:53:39;;;;;;;6.60;1.90;;;;;;;24.27;41.73;101025.13;5064523;28;20043;-66
2022/05/11 10:56:41;;;;;;;4.70;2.20;;;;;;;24.23;41.96;101036.72;5088072;28;20111;-65
2022/05/11 10:59:33;;;;;;;5.82;2.10;;;;;;;24.16;41.97;101027.97;5088152;28;20036;-66
2022/05/11 11:02:33;;;;;;;5.90;2.03;;;;;;;24.08;41.50;101028.19;5087804;28;20028;-66
2022/05/11 11:05:10;;;;;;;3.87;1.90;;;;;;;24.14;41.50;101019.19;5088487;28;20392;-66
2022/05/11 11:07:41;;;;;;;4.47;1.92;;;;;;;24.23;40.88;101016.38;5087647;28;20028;-66
2022/05/11 11:10:15;;;;;;;6.65;2.80;;;;;;;24.25;40.20;101018.16;5088010;28;20031;-66
2022/05/11 11:12:53;;;;;;;10.40;2.55;;;;;;;24.27;41.15;101021.63;5088206;28;20258;-66
2022/05/11 11:15:22;;;;;;;6.30;1.95;;;;;;;24.32;41.18;101009.16;5088172;28;20036;-66
2022/05/11 11:17:48;;;;;;;5.90;1.80;;;;;;;24.44;41.22;101014.16;5088061;28;20020;-65
2022/05/11 11:20:17;;;;;;;6.72;2.42;;;;;;;24.28;41.13;101002.19;5088065;28;20109;-66
2022/05/11 11:23:01;;;;;;;5.20;1.85;;;;;;;24.22;40.72;100997.91;5087905;28;20031;-65
2022/05/11 11:25:27;;;;;;;5.32;1.95;;;;;;;24.22;40.49;100993.50;5088095;28;20024;-66
2022/05/11 11:28:10;;;;;;;4.03;2.28;;;;;;;24.31;40.58;101003.00;5086726;28;20020;-66
2022/05/11 11:30:38;;;;;;;5.95;2.13;;;;;;;24.26;40.25;101006.63;5087839;28;20464;-66
2022/05/11 11:33:23;;;;;;;6.78;1.98;;;;;;;24.31;40.72;101002.09;5087956;28;20028;-66
2022/05/11 11:36:04;;;;;;;4.40;2.00;;;;;;;24.32;40.55;100993.28;5087313;28;20587;-66
2022/05/11 11:38:45;;;;;;;;;;;;;;;24.36;39.51;100994.06;5087861;28;20039;-66
2022/05/11 11:41:28;;;;;;;5.47;1.83;;;;;;;24.46;38.93;100985.88;5086890;28;20299;-65
2022/05/11 11:43:57;;;;;;;5.35;2.38;;;;;;;24.53;38.49;100993.66;5087235;28;20475;-66
2022/05/11 11:46:37;;;;;;;4.85;1.98;;;;;;;24.61;39.14;100985.53;5086710;28;20031;-66
2022/05/11 11:49:06;;;;;;;4.70;2.13;;;;;;;24.38;39.10;100977.22;5087903;28;20028;-66
2022/05/11 11:51:50;;;;;;;7.70;2.38;;;;;;;24.15;39.20;100973.31;5087692;28;20032;-66
2022/05/11 11:54:30;;;;;;;4.93;1.60;;;;;;;24.26;39.05;100983.69;5087592;28;20658;-66
2022/05/11 11:56:58;;;;;;;3.95;2.03;;;;;;;24.49;39.97;100973.44;5087610;28;20478;-66
2022/05/11 11:59:23;;;;;;;7.47;2.00;;;;;;;24.43;39.72;100979.78;5087947;28;20024;-66
2022/05/11 12:01:51;;;;;;;5.85;1.90;;;;;;;24.55;40.04;100983.91;5087502;28;20264;-66
2022/05/11 12:04:40;;;;;;;4.75;1.60;;;;;;;24.88;39.61;100975.16;5087560;28;20483;-66
2022/05/11 12:15:27;;;;;;;6.28;1.80;;;;;;;24.42;39.13;100962.13;5087537;28;20043;-66